createdAt,value
2023-01-21T00:00:07.948Z,20.70
2023-01-21T00:02:11.025Z,18.95
2023-01-21T00:04:14.408Z,18.63
2023-01-21T00:06:18.876Z,19.63
2023-01-21T00:08:22.034Z,19.38
2023-01-21T00:10:25.210Z,19.58
2023-01-21T00:12:28.371Z,18.70
2023-01-21T00:14:31.619Z,19.52
2023-01-21T00:16:34.601Z,18.83
2023-01-21T00:18:37.902Z,18.98
2023-01-21T00:20:41.066Z,19.13
2023-01-21T00:22:45.456Z,19.80
2023-01-21T00:24:48.501Z,19.80
2023-01-21T00:26:51.652Z,18.48
2023-01-21T00:28:54.778Z,19.48
2023-01-21T00:30:59.374Z,18.40
2023-01-21T00:33:02.512Z,18.48
2023-01-21T00:35:06.645Z,19.33
2023-01-21T00:37:09.706Z,18.70
2023-01-21T00:39:14.128Z,18.92
2023-01-21T00:41:17.368Z,19.38
2023-01-21T00:43:20.391Z,19.17
2023-01-21T00:45:23.453Z,20.17
2023-01-21T00:47:26.606Z,20.23
2023-01-21T00:49:29.728Z,19.80
2023-01-21T00:51:32.948Z,19.85
2023-01-21T00:53:38.278Z,20.98
2023-01-21T00:55:42.820Z,20.73
2023-01-21T00:57:46.095Z,20.90
2023-01-21T00:59:49.387Z,20.77
2023-01-21T01:01:52.607Z,20.70
2023-01-21T01:03:55.871Z,20.88
2023-01-21T01:06:03.347Z,20.83
2023-01-21T01:08:06.703Z,21.85
2023-01-21T01:10:11.071Z,21.65
2023-01-21T01:12:15.595Z,22.23
2023-01-21T01:14:18.894Z,21.83
2023-01-21T01:16:24.648Z,21.35
2023-01-21T01:18:28.623Z,21.13
2023-01-21T01:20:31.894Z,21.38
2023-01-21T01:22:35.085Z,20.85
2023-01-21T01:24:38.283Z,21.25
2023-01-21T01:26:42.350Z,20.15
2023-01-21T01:28:46.959Z,21.25
2023-01-21T01:30:50.269Z,22.27
2023-01-21T01:32:53.509Z,19.83
2023-01-21T01:34:56.654Z,21.13
2023-01-21T01:36:59.787Z,20.60
2023-01-21T01:39:02.988Z,20.60
2023-01-21T01:41:06.621Z,21.58
2023-01-21T01:43:18.379Z,20.73
2023-01-21T01:45:23.176Z,20.80
2023-01-21T01:47:31.113Z,21.65
2023-01-21T01:49:34.396Z,20.88
2023-01-21T01:51:48.645Z,21.40
2023-01-21T01:53:53.430Z,21.88
2023-01-21T01:55:56.800Z,20.40
2023-01-21T01:58:02.515Z,20.85
2023-01-21T02:00:09.007Z,21.08
2023-01-21T02:02:19.192Z,20.40
2023-01-21T02:04:28.324Z,20.73
2023-01-21T02:06:31.450Z,20.80
2023-01-21T02:08:36.320Z,21.05
2023-01-21T02:10:39.714Z,19.77
2023-01-21T02:12:44.829Z,21.73
2023-01-21T02:14:49.104Z,20.08
2023-01-21T02:17:03.732Z,19.45
2023-01-21T02:19:36.291Z,20.05
2023-01-21T02:21:55.247Z,20.70
2023-01-21T02:24:15.935Z,20.75
2023-01-21T02:26:45.483Z,20.38
2023-01-21T02:29:36.664Z,18.90
2023-01-21T02:32:08.109Z,20.13
2023-01-21T02:34:24.178Z,19.45
2023-01-21T02:36:37.715Z,19.90
2023-01-21T02:38:49.691Z,18.65
2023-01-21T02:41:03.243Z,20.40
2023-01-21T02:43:14.045Z,20.80
2023-01-21T02:45:25.500Z,20.48
2023-01-21T02:47:33.862Z,20.15
2023-01-21T02:49:43.100Z,20.30
2023-01-21T02:51:49.957Z,20.73
2023-01-21T02:53:53.131Z,19.95
2023-01-21T02:55:59.367Z,21.42
2023-01-21T02:58:05.288Z,20.17
2023-01-21T03:00:14.444Z,19.75
2023-01-21T03:02:26.366Z,19.67
2023-01-21T03:04:51.966Z,20.45
2023-01-21T03:07:04.539Z,19.55
2023-01-21T03:09:19.321Z,19.77
2023-01-21T03:11:23.423Z,19.23
2023-01-21T03:13:49.939Z,20.48
2023-01-21T03:16:14.516Z,18.83
2023-01-21T03:18:25.144Z,19.52
2023-01-21T03:20:34.720Z,20.73
2023-01-21T03:22:40.185Z,20.00
2023-01-21T03:24:46.657Z,20.98
2023-01-21T03:26:53.726Z,21.83
2023-01-21T03:29:01.838Z,20.50
2023-01-21T03:31:08.020Z,21.10
2023-01-21T03:33:14.018Z,20.48
2023-01-21T03:35:24.931Z,21.40
2023-01-21T03:37:35.028Z,21.23
2023-01-21T03:39:46.799Z,22.17
2023-01-21T03:41:50.128Z,20.55
2023-01-21T03:43:53.434Z,21.17
2023-01-21T03:46:04.192Z,22.13
2023-01-21T03:48:17.552Z,21.67
2023-01-21T03:50:23.706Z,22.67
2023-01-21T03:52:28.285Z,22.38
2023-01-21T03:54:33.447Z,22.63
2023-01-21T03:56:36.595Z,21.75
2023-01-21T03:58:39.753Z,22.70
2023-01-21T04:00:42.986Z,23.17
2023-01-21T04:02:46.138Z,25.08
2023-01-21T04:04:49.314Z,23.52
2023-01-21T04:06:52.441Z,23.70
2023-01-21T04:08:55.552Z,23.83
2023-01-21T04:11:00.114Z,23.35
2023-01-21T04:13:03.358Z,24.00
2023-01-21T04:15:07.688Z,22.95
2023-01-21T04:17:11.319Z,24.20
2023-01-21T04:19:14.456Z,22.35
2023-01-21T04:21:17.618Z,23.50
2023-01-21T04:23:20.758Z,23.73
2023-01-21T04:25:23.886Z,24.33
2023-01-21T04:27:28.453Z,24.13
2023-01-21T04:29:31.566Z,23.95
2023-01-21T04:31:34.781Z,24.05
2023-01-21T04:33:38.033Z,25.27
2023-01-21T04:35:41.192Z,24.30
2023-01-21T04:37:44.506Z,25.40
2023-01-21T04:39:47.678Z,25.85
2023-01-21T04:41:50.876Z,24.25
2023-01-21T04:43:55.446Z,25.15
2023-01-21T04:45:58.638Z,25.13
2023-01-21T04:48:01.753Z,24.48
2023-01-21T04:50:05.310Z,26.17
2023-01-21T04:52:09.291Z,25.83
2023-01-21T04:54:12.564Z,25.30
2023-01-21T04:56:15.761Z,26.02
2023-01-21T04:58:18.923Z,25.60
2023-01-21T05:00:24.060Z,25.50
2023-01-21T05:02:27.259Z,25.25
2023-01-21T05:04:30.528Z,25.27
2023-01-21T05:06:33.629Z,26.15
2023-01-21T05:08:36.801Z,26.23
2023-01-21T05:10:40.009Z,26.20
2023-01-21T05:12:43.205Z,26.60
2023-01-21T05:14:46.560Z,27.02
2023-01-21T05:16:51.219Z,28.45
2023-01-21T05:18:54.442Z,27.38
2023-01-21T05:20:57.625Z,26.92
2023-01-21T05:23:00.830Z,26.70
2023-01-21T05:25:04.056Z,27.25
2023-01-21T05:27:07.251Z,26.90
2023-01-21T05:29:10.685Z,28.67
2023-01-21T05:31:13.946Z,27.77
2023-01-21T05:33:18.648Z,26.35
2023-01-21T05:35:22.752Z,27.50
2023-01-21T05:37:26.036Z,27.13
2023-01-21T05:39:29.206Z,28.00
2023-01-21T05:41:32.539Z,27.35
2023-01-21T05:43:35.837Z,25.58
2023-01-21T05:45:39.081Z,26.35
2023-01-21T05:47:42.483Z,26.55
2023-01-21T05:49:47.483Z,27.88
2023-01-21T05:51:50.671Z,26.90
2023-01-21T05:53:53.858Z,27.55
2023-01-21T05:55:57.961Z,27.45
2023-01-21T05:58:01.158Z,27.30
2023-01-21T06:00:05.359Z,25.77
2023-01-21T06:02:08.993Z,27.05
2023-01-21T06:04:12.188Z,27.10
2023-01-21T06:06:16.984Z,27.65
2023-01-21T06:08:20.489Z,27.92
2023-01-21T06:10:23.667Z,28.05
2023-01-21T06:12:26.895Z,28.13
2023-01-21T06:14:30.071Z,27.88
2023-01-21T06:16:33.487Z,27.08
2023-01-21T06:18:36.933Z,28.23
2023-01-21T06:20:40.139Z,27.98
2023-01-21T06:22:44.732Z,29.17
2023-01-21T06:24:48.039Z,28.63
2023-01-21T06:26:51.284Z,29.45
2023-01-21T06:28:56.388Z,27.50
2023-01-21T06:30:59.834Z,28.15
2023-01-21T06:33:03.228Z,28.90
2023-01-21T06:35:07.036Z,27.05
2023-01-21T06:37:10.271Z,27.80
2023-01-21T06:39:14.851Z,27.15
2023-01-21T06:41:18.119Z,26.88
2023-01-21T06:43:21.290Z,26.58
2023-01-21T06:45:24.464Z,26.52
2023-01-21T06:47:27.726Z,26.67
2023-01-21T06:49:31.307Z,26.48
2023-01-21T06:51:34.575Z,25.90
2023-01-21T06:53:37.762Z,26.75
2023-01-21T06:55:42.337Z,26.50
2023-01-21T06:57:46.426Z,25.38
2023-01-21T06:59:49.705Z,25.90
2023-01-21T07:01:53.586Z,26.85
2023-01-21T07:03:56.828Z,26.90
2023-01-21T07:05:59.977Z,24.88
2023-01-21T07:08:03.242Z,24.35
2023-01-21T07:10:09.150Z,25.05
2023-01-21T07:12:13.809Z,23.55
2023-01-21T07:14:17.023Z,24.70
2023-01-21T07:16:20.216Z,25.75
2023-01-21T07:18:23.398Z,26.00
2023-01-21T07:20:26.601Z,24.92
2023-01-21T07:22:29.801Z,24.80
2023-01-21T07:24:32.983Z,23.73
2023-01-21T07:26:38.158Z,24.23
2023-01-21T07:28:42.819Z,24.30
2023-01-21T07:30:46.158Z,24.90
2023-01-21T07:32:49.464Z,25.17
2023-01-21T07:34:52.705Z,24.35
2023-01-21T07:36:55.983Z,25.90
2023-01-21T07:38:59.269Z,26.85
2023-01-21T07:41:02.509Z,26.27
2023-01-21T07:43:05.748Z,24.92
2023-01-21T07:45:11.380Z,25.52
2023-01-21T07:47:14.583Z,25.25
2023-01-21T07:49:18.458Z,25.85
2023-01-21T07:51:22.367Z,26.23
2023-01-21T07:53:25.925Z,26.10
2023-01-21T07:55:30.147Z,28.02
2023-01-21T07:57:33.350Z,27.67
2023-01-21T07:59:36.587Z,27.02
2023-01-21T08:01:41.328Z,26.10
2023-01-21T08:03:44.667Z,26.13
2023-01-21T08:05:47.891Z,26.23
2023-01-21T08:07:51.383Z,28.13
2023-01-21T08:09:54.629Z,28.42
2023-01-21T08:11:57.814Z,27.48
2023-01-21T08:14:01.574Z,26.60
2023-01-21T08:16:06.259Z,27.27
2023-01-21T08:18:11.017Z,26.67
2023-01-21T08:20:15.373Z,27.52
2023-01-21T08:22:18.623Z,25.65
2023-01-21T08:24:21.805Z,25.95
2023-01-21T08:26:25.798Z,26.98
2023-01-21T08:28:29.173Z,25.73
2023-01-21T08:30:32.370Z,26.17
2023-01-21T08:32:35.632Z,25.20
2023-01-21T08:34:40.235Z,24.98
2023-01-21T08:36:43.492Z,25.65
2023-01-21T08:38:48.662Z,26.02
2023-01-21T08:40:52.091Z,25.67
2023-01-21T08:42:59.427Z,24.10
2023-01-21T08:45:02.824Z,25.05
2023-01-21T08:47:06.079Z,25.77
2023-01-21T08:49:09.376Z,24.25
2023-01-21T08:51:14.125Z,24.60
2023-01-21T08:53:17.796Z,23.75
2023-01-21T08:55:21.452Z,23.52
2023-01-21T08:57:24.726Z,24.08
2023-01-21T08:59:30.190Z,24.48
2023-01-21T09:01:33.680Z,23.25
2023-01-21T09:03:39.068Z,24.23
2023-01-21T09:05:42.460Z,22.67
2023-01-21T09:07:47.576Z,23.80
2023-01-21T09:09:50.868Z,23.55
2023-01-21T09:11:54.150Z,23.67
2023-01-21T09:14:00.633Z,24.00
2023-01-21T09:16:04.945Z,22.73
2023-01-21T09:18:08.879Z,23.45
2023-01-21T09:20:13.303Z,20.85
2023-01-21T09:22:17.297Z,21.70
2023-01-21T09:24:21.914Z,21.75
2023-01-21T09:26:25.913Z,21.45
2023-01-21T09:28:29.459Z,20.38
2023-01-21T09:30:32.707Z,21.20
2023-01-21T09:32:35.944Z,20.48
2023-01-21T09:34:39.185Z,20.42
2023-01-21T09:36:42.419Z,20.80
2023-01-21T09:38:46.744Z,20.90
2023-01-21T09:40:51.697Z,20.85
2023-01-21T09:42:54.907Z,20.60
2023-01-21T09:45:01.124Z,20.23
2023-01-21T09:47:10.660Z,20.00
2023-01-21T09:49:19.722Z,20.20
2023-01-21T09:51:30.137Z,20.75
2023-01-21T09:53:39.315Z,19.50
2023-01-21T09:55:48.178Z,19.73
2023-01-21T09:58:09.240Z,19.88
2023-01-21T10:00:32.406Z,19.25
2023-01-21T10:02:43.635Z,20.52
2023-01-21T10:04:53.973Z,20.63
2023-01-21T10:07:04.475Z,21.42
2023-01-21T10:09:36.914Z,20.77
2023-01-21T10:11:51.496Z,20.70
2023-01-21T10:14:12.857Z,21.52
2023-01-21T10:16:23.074Z,20.38
2023-01-21T10:18:30.968Z,20.73
2023-01-21T10:20:45.653Z,20.88
2023-01-21T10:22:54.191Z,21.25
2023-01-21T10:25:01.795Z,20.92
2023-01-21T10:27:05.456Z,20.73
2023-01-21T10:29:17.377Z,22.33
2023-01-21T10:31:24.546Z,22.35
2023-01-21T10:33:32.186Z,21.88
2023-01-21T10:35:52.784Z,21.35
2023-01-21T10:38:01.928Z,20.15
2023-01-21T10:40:12.130Z,20.88
2023-01-21T10:42:42.431Z,19.48
2023-01-21T10:44:56.206Z,20.02
2023-01-21T10:47:08.232Z,19.77
2023-01-21T10:49:27.974Z,18.55
2023-01-21T10:51:36.195Z,18.60
2023-01-21T10:53:45.391Z,19.38
2023-01-21T10:56:01.819Z,19.65
2023-01-21T10:58:11.515Z,18.30
2023-01-21T11:00:21.836Z,19.17
2023-01-21T11:02:31.006Z,19.02
2023-01-21T11:04:36.913Z,19.25
2023-01-21T11:06:41.125Z,18.63
2023-01-21T11:08:47.843Z,18.80
2023-01-21T11:10:55.331Z,19.33
2023-01-21T11:12:58.992Z,20.33
2023-01-21T11:15:08.813Z,18.38
2023-01-21T11:17:13.560Z,18.83
2023-01-21T11:19:18.987Z,17.80
2023-01-21T11:21:24.426Z,17.73
2023-01-21T11:23:29.879Z,18.90
2023-01-21T11:25:38.200Z,18.45
2023-01-21T11:27:41.455Z,19.08
2023-01-21T11:29:44.671Z,18.52
2023-01-21T11:31:50.242Z,17.30
2023-01-21T11:33:57.121Z,17.25
2023-01-21T11:36:15.641Z,17.90
2023-01-21T11:38:33.390Z,17.70
2023-01-21T11:40:36.668Z,18.13
2023-01-21T11:42:48.617Z,16.70
2023-01-21T11:44:54.980Z,17.88
2023-01-21T11:46:58.297Z,16.45
2023-01-21T11:49:21.852Z,16.52
2023-01-21T11:51:25.194Z,17.65
2023-01-21T11:53:28.393Z,16.30
2023-01-21T11:55:32.590Z,17.30
2023-01-21T11:57:35.957Z,17.35
2023-01-21T11:59:42.071Z,17.52
2023-01-21T12:01:53.235Z,17.70
2023-01-21T12:04:00.949Z,16.73
2023-01-21T12:06:08.710Z,16.70
2023-01-21T12:08:21.983Z,16.70
2023-01-21T12:10:29.592Z,15.00
2023-01-21T12:12:47.615Z,16.08
2023-01-21T12:14:55.108Z,15.88
2023-01-21T12:17:09.208Z,15.20
2023-01-21T12:19:35.964Z,15.15
2023-01-21T12:21:50.889Z,15.40
2023-01-21T12:24:05.252Z,16.55
2023-01-21T12:26:32.217Z,16.42
2023-01-21T12:31:23.876Z,17.20
2023-01-21T12:33:44.185Z,18.52
2023-01-21T12:35:51.830Z,17.65
2023-01-21T12:38:01.685Z,18.77
2023-01-21T12:40:17.184Z,18.75
2023-01-21T12:42:26.273Z,19.02
2023-01-21T12:44:35.149Z,20.10
2023-01-21T12:46:44.583Z,18.90
2023-01-21T12:48:53.450Z,18.17
2023-01-21T12:51:01.214Z,18.67
2023-01-21T12:53:16.246Z,17.15
2023-01-21T12:55:24.445Z,18.02
2023-01-21T12:57:32.764Z,17.73
2023-01-21T12:59:43.313Z,18.45
2023-01-21T13:01:55.270Z,18.47
2023-01-21T13:04:05.117Z,18.80
2023-01-21T13:06:13.686Z,20.30
2023-01-21T13:08:38.532Z,17.98
2023-01-21T13:10:48.605Z,18.33
2023-01-21T13:12:57.673Z,18.30
2023-01-21T13:15:04.033Z,18.55
2023-01-21T13:17:15.690Z,19.85
2023-01-21T13:19:19.245Z,19.58
2023-01-21T13:21:33.263Z,19.17
2023-01-21T13:23:46.805Z,18.02
2023-01-21T13:25:58.231Z,22.92
2023-01-21T13:28:08.028Z,19.02
2023-01-21T13:30:25.012Z,18.08
2023-01-21T13:32:38.534Z,17.60
2023-01-21T13:34:53.203Z,17.33
2023-01-21T13:37:10.603Z,16.00
2023-01-21T13:39:23.011Z,15.88
2023-01-21T13:41:37.141Z,15.50
2023-01-21T13:43:59.696Z,16.35
2023-01-21T13:46:14.433Z,16.65
2023-01-21T13:48:39.148Z,15.50
2023-01-21T13:50:55.351Z,15.35
2023-01-21T13:53:20.652Z,16.30
2023-01-21T13:55:39.138Z,15.82
2023-01-21T13:58:02.862Z,15.57
2023-01-21T14:00:12.942Z,15.18
2023-01-21T14:02:21.054Z,15.52
2023-01-21T14:04:31.277Z,16.05
2023-01-21T14:06:41.915Z,16.13
2023-01-21T14:08:51.417Z,15.90
2023-01-21T14:10:59.676Z,16.23
2023-01-21T14:13:39.844Z,16.10
2023-01-21T14:15:57.851Z,17.27
2023-01-21T14:18:22.325Z,15.50
2023-01-21T14:20:52.589Z,15.75
2023-01-21T14:23:18.453Z,15.75
2023-01-21T14:25:34.355Z,16.23
2023-01-21T14:27:48.030Z,14.27
2023-01-21T14:29:56.950Z,14.23
2023-01-21T14:32:06.994Z,14.00
2023-01-21T14:34:18.536Z,14.73
2023-01-21T14:38:38.173Z,13.95
2023-01-21T14:40:49.207Z,16.48
2023-01-21T14:42:56.473Z,13.80
2023-01-21T14:45:08.083Z,12.88
2023-01-21T14:47:24.046Z,13.35
2023-01-21T14:49:41.022Z,11.73
2023-01-21T14:51:48.129Z,11.30
2023-01-21T14:53:53.545Z,10.93
2023-01-21T14:56:16.761Z,11.50
2023-01-21T14:58:24.745Z,11.13
2023-01-21T15:00:32.200Z,10.50
2023-01-21T15:02:41.312Z,10.45
2023-01-21T15:04:53.957Z,11.05
2023-01-21T15:07:00.059Z,10.57
2023-01-21T15:09:04.774Z,10.18
2023-01-21T15:11:08.554Z,10.95
2023-01-21T15:13:30.647Z,11.25
2023-01-21T15:15:36.984Z,11.50
2023-01-21T15:18:03.594Z,11.35
2023-01-21T15:20:40.001Z,10.60
2023-01-21T15:22:46.809Z,11.57
2023-01-21T15:25:04.732Z,11.18
2023-01-21T15:27:19.715Z,10.63
2023-01-21T15:29:34.828Z,10.63
2023-01-21T15:31:44.168Z,11.02
2023-01-21T15:33:50.444Z,10.68
2023-01-21T15:35:55.417Z,10.05
2023-01-21T15:38:03.329Z,10.38
2023-01-21T15:40:18.142Z,9.50
2023-01-21T15:42:28.353Z,9.93
2023-01-21T15:44:55.991Z,9.90
2023-01-21T15:47:04.420Z,9.38
2023-01-21T15:49:30.716Z,8.90
2023-01-21T15:51:46.329Z,8.45
2023-01-21T15:54:05.818Z,7.55
2023-01-21T15:56:36.807Z,8.77
2023-01-21T15:58:52.341Z,8.32
2023-01-21T16:01:05.845Z,8.68
2023-01-21T16:03:21.392Z,8.07
2023-01-21T16:05:32.919Z,7.85
2023-01-21T16:09:58.870Z,7.60
2023-01-21T16:12:16.263Z,7.82
2023-01-21T16:14:37.742Z,7.53
2023-01-21T16:16:53.785Z,8.35
2023-01-21T16:19:03.261Z,7.55
2023-01-21T16:21:07.799Z,7.70
2023-01-21T16:23:11.298Z,8.00
2023-01-21T16:25:18.409Z,9.30
2023-01-21T16:27:24.789Z,9.02
2023-01-21T16:29:28.481Z,7.93
2023-01-21T16:31:31.922Z,7.95
2023-01-21T16:33:36.708Z,7.90
2023-01-21T16:35:47.260Z,8.20
2023-01-21T16:37:55.129Z,7.75
2023-01-21T16:40:26.765Z,8.02
2023-01-21T16:42:44.262Z,8.00
2023-01-21T16:44:47.646Z,7.78
2023-01-21T16:46:51.569Z,8.20
2023-01-21T16:48:58.922Z,8.10
2023-01-21T16:51:02.845Z,7.78
2023-01-21T16:53:09.689Z,8.48
2023-01-21T16:55:20.866Z,7.82
2023-01-21T16:57:31.768Z,8.70
2023-01-21T16:59:39.926Z,8.45
2023-01-21T17:01:43.457Z,8.52
2023-01-21T17:03:48.326Z,8.60
2023-01-21T17:05:56.214Z,7.47
2023-01-21T17:08:02.239Z,7.82
2023-01-21T17:10:09.619Z,7.15
2023-01-21T17:12:29.052Z,7.47
2023-01-21T17:14:34.330Z,7.90
2023-01-21T17:16:40.670Z,7.50
2023-01-21T17:18:52.188Z,8.77
2023-01-21T17:21:03.667Z,7.68
2023-01-21T17:23:10.818Z,8.20
2023-01-21T17:25:23.634Z,7.80
2023-01-21T17:27:28.267Z,7.15
2023-01-21T17:29:33.524Z,7.70
2023-01-21T17:31:39.452Z,8.80
2023-01-21T17:33:43.857Z,7.97
2023-01-21T17:36:07.443Z,7.75
2023-01-21T17:38:30.126Z,9.05
2023-01-21T17:40:36.205Z,7.85
2023-01-21T17:42:41.651Z,8.55
2023-01-21T17:44:47.772Z,7.93
2023-01-21T17:46:54.550Z,7.35
2023-01-21T17:49:03.241Z,7.22
2023-01-21T17:51:12.948Z,7.45
2023-01-21T17:53:22.912Z,6.53
2023-01-21T17:55:29.864Z,6.38
2023-01-21T17:57:34.901Z,7.00
2023-01-21T17:59:39.527Z,7.00
2023-01-21T18:01:43.119Z,6.75
2023-01-21T18:03:46.851Z,6.97
2023-01-21T18:05:50.224Z,7.32
2023-01-21T18:07:54.781Z,7.93
2023-01-21T18:10:03.185Z,7.75
2023-01-21T18:12:07.739Z,7.82
2023-01-21T18:14:14.902Z,8.15
2023-01-21T18:16:18.181Z,8.32
2023-01-21T18:18:25.354Z,8.50
2023-01-21T18:20:30.393Z,8.52
2023-01-21T18:22:33.649Z,7.97
2023-01-21T18:24:38.293Z,8.20
2023-01-21T18:26:41.559Z,8.68
2023-01-21T18:28:44.752Z,8.98
2023-01-21T18:30:48.258Z,9.13
2023-01-21T18:32:51.976Z,9.82
2023-01-21T18:34:55.208Z,10.00
2023-01-21T18:36:58.492Z,9.85
2023-01-21T18:39:01.714Z,9.82
2023-01-21T18:41:08.911Z,10.27
2023-01-21T18:43:12.142Z,10.35
2023-01-21T18:45:17.773Z,10.02
2023-01-21T18:47:22.672Z,9.85
2023-01-21T18:49:27.724Z,10.15
2023-01-21T18:51:32.321Z,10.48
2023-01-21T18:53:35.782Z,10.07
2023-01-21T18:55:39.295Z,10.13
2023-01-21T18:57:46.285Z,9.27
2023-01-21T18:59:49.817Z,10.13
2023-01-21T19:01:53.016Z,9.38
2023-01-21T19:03:56.252Z,10.20
2023-01-21T19:06:00.052Z,9.82
2023-01-21T19:08:05.443Z,10.40
2023-01-21T19:10:13.161Z,9.60
2023-01-21T19:12:18.567Z,10.18
2023-01-21T19:14:23.174Z,9.77
2023-01-21T19:16:26.486Z,9.65
2023-01-21T19:18:29.728Z,10.07
2023-01-21T19:20:32.970Z,9.45
2023-01-21T19:22:36.592Z,10.63
2023-01-21T19:24:39.797Z,10.02
2023-01-21T19:26:43.232Z,10.20
2023-01-21T19:28:46.589Z,10.48
2023-01-21T19:30:55.447Z,10.10
2023-01-21T19:33:00.762Z,10.07
2023-01-21T19:35:04.009Z,10.43
2023-01-21T19:37:07.696Z,10.40
2023-01-21T19:39:16.829Z,10.50
2023-01-21T19:41:20.135Z,10.07
2023-01-21T19:43:23.638Z,10.88
2023-01-21T19:45:29.967Z,10.77
2023-01-21T19:47:34.601Z,11.52
2023-01-21T19:49:37.770Z,11.25
2023-01-21T19:51:41.014Z,11.15
2023-01-21T19:53:44.211Z,11.40
2023-01-21T19:55:49.207Z,11.02
2023-01-21T19:57:57.521Z,11.70
2023-01-21T20:00:01.056Z,11.90
2023-01-21T20:02:04.298Z,11.60
2023-01-21T20:04:10.129Z,11.60
2023-01-21T20:06:13.617Z,11.70
2023-01-21T20:08:21.642Z,12.10
2023-01-21T20:10:28.224Z,11.65
2023-01-21T20:12:32.035Z,11.68
2023-01-21T20:14:35.214Z,11.73
2023-01-21T20:16:45.893Z,11.93
2023-01-21T20:18:49.858Z,11.82
2023-01-21T20:20:54.722Z,11.85
2023-01-21T20:22:58.312Z,11.63
2023-01-21T20:25:01.510Z,11.95
2023-01-21T20:27:08.578Z,12.35
2023-01-21T20:29:16.625Z,12.00
2023-01-21T20:31:20.128Z,13.27
2023-01-21T20:33:26.487Z,12.45
2023-01-21T20:35:29.925Z,12.48
2023-01-21T20:37:35.580Z,12.07
2023-01-21T20:39:38.799Z,12.60
2023-01-21T20:41:43.414Z,11.30
2023-01-21T20:43:46.768Z,12.27
2023-01-21T20:45:52.128Z,12.00
2023-01-21T20:47:57.841Z,11.95
2023-01-21T20:50:01.892Z,12.38
2023-01-21T20:52:05.453Z,12.20
2023-01-21T20:54:10.145Z,11.20
2023-01-21T20:56:19.405Z,11.63
2023-01-21T20:58:23.084Z,11.60
2023-01-21T21:00:28.831Z,11.50
2023-01-21T21:02:32.129Z,11.07
2023-01-21T21:04:35.347Z,10.60
2023-01-21T21:06:38.626Z,9.88
2023-01-21T21:08:42.357Z,10.00
2023-01-21T21:10:47.874Z,11.23
2023-01-21T21:12:51.623Z,10.57
2023-01-21T21:14:54.828Z,9.85
2023-01-21T21:16:58.892Z,10.07
2023-01-21T21:19:03.703Z,9.65
2023-01-21T21:21:07.380Z,8.93
2023-01-21T21:23:13.040Z,9.05
2023-01-21T21:25:17.962Z,8.50
2023-01-21T21:27:22.741Z,9.10
2023-01-21T21:29:26.083Z,8.93
2023-01-21T21:31:32.398Z,9.18
2023-01-21T21:33:35.731Z,8.80
2023-01-21T21:35:39.799Z,8.40
2023-01-21T21:37:43.631Z,8.52
2023-01-21T21:39:46.890Z,8.55
2023-01-21T21:42:07.285Z,8.25
2023-01-21T21:44:12.310Z,8.38
2023-01-21T21:46:33.359Z,8.65
2023-01-21T21:48:39.584Z,8.77
2023-01-21T21:50:43.200Z,8.10
2023-01-21T21:52:46.356Z,8.48
2023-01-21T21:54:49.690Z,8.27
2023-01-21T21:56:53.026Z,7.85
2023-01-21T21:58:56.126Z,7.32
2023-01-21T22:01:09.977Z,7.07
2023-01-21T22:03:14.107Z,6.38
2023-01-21T22:05:17.721Z,6.45
2023-01-21T22:07:21.131Z,6.05
2023-01-21T22:09:24.356Z,5.57
2023-01-21T22:11:28.955Z,5.38
2023-01-21T22:13:33.272Z,5.53
2023-01-21T22:15:36.808Z,6.40
2023-01-21T22:17:41.438Z,5.63
2023-01-21T22:19:44.728Z,6.20
2023-01-21T22:21:48.172Z,5.65
2023-01-21T22:23:51.488Z,5.00
2023-01-21T22:25:56.218Z,5.03
2023-01-21T22:27:59.582Z,4.80
2023-01-21T22:30:02.818Z,4.63
2023-01-21T22:32:06.526Z,4.72
2023-01-21T22:34:12.707Z,4.00
2023-01-21T22:36:18.682Z,4.20
2023-01-21T22:38:21.938Z,4.28
2023-01-21T22:40:25.458Z,4.30
2023-01-21T22:42:28.913Z,4.00
2023-01-21T22:44:32.103Z,3.78
2023-01-21T22:46:35.405Z,3.60
2023-01-21T22:48:38.595Z,3.97
2023-01-21T22:50:44.445Z,3.83
2023-01-21T22:52:48.164Z,3.80
2023-01-21T22:54:51.359Z,4.45
2023-01-21T22:56:54.650Z,3.88
2023-01-21T22:58:58.294Z,4.90
2023-01-21T23:01:02.534Z,4.00
2023-01-21T23:03:07.153Z,4.50
2023-01-21T23:05:10.673Z,4.53
2023-01-21T23:07:15.422Z,4.40
2023-01-21T23:09:18.628Z,4.28
2023-01-21T23:11:21.916Z,4.47
2023-01-21T23:13:26.434Z,4.30
2023-01-21T23:15:29.746Z,4.53
2023-01-21T23:17:32.935Z,4.32
2023-01-21T23:19:36.133Z,4.18
2023-01-21T23:21:39.856Z,4.25
2023-01-21T23:23:44.716Z,4.07
2023-01-21T23:25:48.835Z,4.20
2023-01-21T23:27:52.172Z,4.03
2023-01-21T23:29:55.331Z,4.30
2023-01-21T23:31:59.025Z,4.00
2023-01-21T23:34:03.317Z,4.70
2023-01-21T23:36:09.430Z,4.18
2023-01-21T23:38:12.596Z,4.35
2023-01-21T23:40:17.659Z,4.50
2023-01-21T23:42:22.449Z,4.18
2023-01-21T23:44:26.285Z,4.38
2023-01-21T23:46:29.838Z,4.45
2023-01-21T23:48:33.114Z,4.38
2023-01-21T23:50:36.435Z,4.28
2023-01-21T23:52:40.460Z,4.80
2023-01-21T23:54:45.065Z,4.57
2023-01-21T23:56:49.957Z,4.93
2023-01-21T23:58:53.465Z,4.57
